createdAt,value
2022-10-14T00:01:14.322Z,33.00
2022-10-14T00:03:42.454Z,35.23
2022-10-14T00:06:13.949Z,36.77
2022-10-14T00:08:42.270Z,35.23
2022-10-14T00:11:17.798Z,40.43
2022-10-14T00:13:46.484Z,38.03
2022-10-14T00:16:20.481Z,33.77
2022-10-14T00:18:48.942Z,36.87
2022-10-14T00:21:17.118Z,35.37
2022-10-14T00:23:45.640Z,38.43
2022-10-14T00:26:21.299Z,36.77
2022-10-14T00:28:50.825Z,38.67
2022-10-14T00:31:19.329Z,39.83
2022-10-14T00:33:48.897Z,38.20
2022-10-14T00:36:18.702Z,39.43
2022-10-14T00:38:46.788Z,39.43
2022-10-14T00:41:16.678Z,40.73
2022-10-14T00:44:01.192Z,37.50
2022-10-14T00:46:31.085Z,40.70
2022-10-14T00:49:06.874Z,40.97
2022-10-14T00:51:36.061Z,43.80
2022-10-14T00:54:04.512Z,43.80
2022-10-14T00:56:33.180Z,43.10
2022-10-14T00:59:04.740Z,43.40
2022-10-14T01:01:32.946Z,43.57
2022-10-14T01:04:00.727Z,42.60
2022-10-14T01:06:42.501Z,42.13
2022-10-14T01:09:20.007Z,45.53
2022-10-14T01:12:27.050Z,44.93
2022-10-14T01:14:54.657Z,43.60
2022-10-14T01:17:35.871Z,45.23
2022-10-14T01:20:34.048Z,48.27
2022-10-14T01:23:24.724Z,45.97
2022-10-14T01:26:02.654Z,47.93
2022-10-14T01:28:43.444Z,45.07
2022-10-14T01:31:18.996Z,47.77
2022-10-14T01:33:49.026Z,49.07
2022-10-14T01:36:21.834Z,48.63
2022-10-14T01:38:53.782Z,49.77
2022-10-14T01:41:26.757Z,46.93
2022-10-14T01:43:58.775Z,46.27
2022-10-14T01:46:29.611Z,48.37
2022-10-14T01:49:02.959Z,48.87
2022-10-14T01:51:37.134Z,51.53
2022-10-14T01:54:09.433Z,49.90
2022-10-14T01:56:40.539Z,50.93
2022-10-14T01:59:10.671Z,55.47
2022-10-14T02:01:39.921Z,50.73
2022-10-14T02:04:16.150Z,53.63
2022-10-14T02:06:50.749Z,53.57
2022-10-14T02:09:24.733Z,56.10
2022-10-14T02:12:04.325Z,57.07
2022-10-14T02:14:40.450Z,51.47
2022-10-14T02:17:17.944Z,54.37
2022-10-14T02:19:51.368Z,50.57
2022-10-14T02:22:26.222Z,50.70
2022-10-14T02:24:58.286Z,52.30
2022-10-14T02:27:28.850Z,55.17
2022-10-14T02:29:58.839Z,56.47
2022-10-14T02:32:29.256Z,53.40
2022-10-14T02:34:59.619Z,51.50
2022-10-14T02:37:30.475Z,55.27
2022-10-14T02:40:05.931Z,53.07
2022-10-14T02:42:33.944Z,53.77
2022-10-14T02:45:05.835Z,56.67
2022-10-14T02:47:35.154Z,62.17
2022-10-14T02:50:03.038Z,56.90
2022-10-14T02:52:31.387Z,56.73
2022-10-14T02:54:59.302Z,55.63
2022-10-14T02:57:27.188Z,58.37
2022-10-14T02:59:58.017Z,51.60
2022-10-14T03:02:26.254Z,54.77
2022-10-14T03:04:55.501Z,56.67
2022-10-14T03:07:24.144Z,56.83
2022-10-14T03:09:53.353Z,59.50
2022-10-14T03:12:21.434Z,57.10
2022-10-14T03:14:50.635Z,58.40
2022-10-14T03:17:19.709Z,58.43
2022-10-14T03:19:50.009Z,56.03
2022-10-14T03:22:19.654Z,63.87
2022-10-14T03:24:47.682Z,58.67
2022-10-14T03:27:26.352Z,57.40
2022-10-14T03:29:59.943Z,55.20
2022-10-14T03:32:27.863Z,53.20
2022-10-14T03:35:17.886Z,55.47
2022-10-14T03:37:49.879Z,52.53
2022-10-14T03:40:21.639Z,56.63
2022-10-14T03:42:50.116Z,55.50
2022-10-14T03:45:18.467Z,55.03
2022-10-14T03:47:48.368Z,55.37
2022-10-14T03:50:16.368Z,58.80
2022-10-14T03:52:54.618Z,54.07
2022-10-14T03:55:29.856Z,53.70
2022-10-14T03:57:58.207Z,51.63
2022-10-14T04:00:27.818Z,60.47
2022-10-14T04:03:09.551Z,54.47
2022-10-14T04:05:41.982Z,54.87
2022-10-14T04:08:15.462Z,66.43
2022-10-14T04:10:53.744Z,60.97
2022-10-14T04:13:21.841Z,59.73
2022-10-14T04:15:49.951Z,62.57
2022-10-14T04:18:25.289Z,59.40
2022-10-14T04:20:56.522Z,57.30
2022-10-14T04:23:27.786Z,57.83
2022-10-14T04:26:05.161Z,61.00
2022-10-14T04:28:33.698Z,61.03
2022-10-14T04:31:09.642Z,57.13
2022-10-14T04:33:50.857Z,57.83
2022-10-14T04:36:25.602Z,60.17
2022-10-14T04:38:56.589Z,61.83
2022-10-14T04:41:25.305Z,57.80
2022-10-14T04:43:55.178Z,61.10
2022-10-14T04:46:31.443Z,58.60
2022-10-14T04:48:59.650Z,62.87
2022-10-14T04:51:32.567Z,63.73
2022-10-14T04:54:13.652Z,67.23
2022-10-14T04:56:49.371Z,64.03
2022-10-14T04:59:17.224Z,66.70
2022-10-14T05:01:56.951Z,62.10
2022-10-14T05:04:33.343Z,70.47
2022-10-14T05:07:02.567Z,63.13
2022-10-14T05:09:32.044Z,65.40
2022-10-14T05:11:59.959Z,65.80
2022-10-14T05:14:38.747Z,62.63
2022-10-14T05:17:15.890Z,61.43
2022-10-14T05:19:45.136Z,61.97
2022-10-14T05:22:13.361Z,64.07
2022-10-14T05:24:46.869Z,61.40
2022-10-14T05:27:16.085Z,66.93
2022-10-14T05:29:44.770Z,65.63
2022-10-14T05:32:12.668Z,59.27
2022-10-14T05:34:44.894Z,65.03
2022-10-14T05:37:19.299Z,66.83
2022-10-14T05:39:52.695Z,68.03
2022-10-14T05:42:25.010Z,64.23
2022-10-14T05:44:55.384Z,62.47
2022-10-14T05:47:24.411Z,63.87
2022-10-14T05:49:58.624Z,69.83
2022-10-14T05:52:26.481Z,65.60
2022-10-14T05:54:57.205Z,64.47
2022-10-14T05:57:29.082Z,59.17
2022-10-14T05:59:57.725Z,68.13
2022-10-14T06:02:26.028Z,62.63
2022-10-14T06:04:55.087Z,61.00
2022-10-14T06:07:24.688Z,65.83
2022-10-14T06:09:52.526Z,70.50
2022-10-14T06:12:23.058Z,62.10
2022-10-14T06:14:51.823Z,63.20
2022-10-14T06:17:20.044Z,67.93
2022-10-14T06:19:48.252Z,68.00
2022-10-14T06:22:16.264Z,62.43
2022-10-14T06:24:44.095Z,65.17
2022-10-14T06:27:12.068Z,60.63
2022-10-14T06:29:41.251Z,64.83
2022-10-14T06:32:10.537Z,64.97
2022-10-14T06:34:38.360Z,64.00
2022-10-14T06:37:06.239Z,62.90
2022-10-14T06:39:34.112Z,60.40
2022-10-14T06:42:03.548Z,61.87
2022-10-14T06:44:31.384Z,65.27
2022-10-14T06:47:00.511Z,76.27
2022-10-14T06:49:28.502Z,63.37
2022-10-14T06:51:56.267Z,61.67
2022-10-14T06:54:24.076Z,63.47
2022-10-14T06:56:52.001Z,63.10
2022-10-14T06:59:19.800Z,66.67
2022-10-14T07:01:47.829Z,74.53
2022-10-14T07:04:17.176Z,62.97
2022-10-14T07:06:45.070Z,64.57
2022-10-14T07:09:13.010Z,67.17
2022-10-14T07:11:42.791Z,69.77
2022-10-14T07:14:11.146Z,67.80
2022-10-14T07:16:39.760Z,67.00
2022-10-14T07:19:07.670Z,69.47
2022-10-14T07:21:36.818Z,78.60
2022-10-14T07:24:04.861Z,65.43
2022-10-14T07:26:32.690Z,65.40
2022-10-14T07:29:00.703Z,70.53
2022-10-14T07:31:29.852Z,66.53
2022-10-14T07:33:57.802Z,69.10
2022-10-14T07:36:25.674Z,66.53
2022-10-14T07:38:55.214Z,65.80
2022-10-14T07:41:25.281Z,68.50
2022-10-14T07:43:55.394Z,67.27
2022-10-14T07:46:29.672Z,68.63
2022-10-14T07:48:59.046Z,56.83
2022-10-14T07:51:27.235Z,63.67
2022-10-14T07:53:57.854Z,59.63
2022-10-14T07:56:25.776Z,60.40
2022-10-14T07:58:53.894Z,59.23
2022-10-14T08:01:24.115Z,59.13
2022-10-14T08:03:52.397Z,58.53
2022-10-14T08:06:20.334Z,54.77
2022-10-14T08:08:48.850Z,54.27
2022-10-14T08:11:22.694Z,51.60
2022-10-14T08:13:51.605Z,56.00
2022-10-14T08:16:22.079Z,55.20
2022-10-14T08:18:50.841Z,56.87
2022-10-14T08:21:20.888Z,56.37
2022-10-14T08:23:49.584Z,51.67
2022-10-14T08:26:22.703Z,52.50
2022-10-14T08:28:51.981Z,50.03
2022-10-14T08:31:20.518Z,47.27
2022-10-14T08:33:48.675Z,47.40
2022-10-14T08:36:16.688Z,47.10
2022-10-14T08:38:44.630Z,43.07
2022-10-14T08:41:35.224Z,43.83
2022-10-14T08:44:17.880Z,39.40
2022-10-14T08:46:52.256Z,41.97
2022-10-14T08:49:25.099Z,40.90
2022-10-14T08:51:56.975Z,39.27
2022-10-14T08:54:31.654Z,37.73
2022-10-14T08:57:00.768Z,38.97
2022-10-14T08:59:30.497Z,42.33
2022-10-14T09:02:02.882Z,38.20
2022-10-14T09:04:32.344Z,43.60
2022-10-14T09:07:00.971Z,48.20
2022-10-14T09:09:36.010Z,39.83
2022-10-14T09:12:08.218Z,40.70
2022-10-14T09:14:40.223Z,41.40
2022-10-14T09:17:14.703Z,42.33
2022-10-14T09:19:47.630Z,41.47
2022-10-14T09:22:16.655Z,40.53
2022-10-14T09:24:48.217Z,43.70
2022-10-14T09:27:17.884Z,38.97
2022-10-14T09:29:50.768Z,41.23
2022-10-14T09:32:29.409Z,40.97
2022-10-14T09:34:59.404Z,38.30
2022-10-14T09:37:29.215Z,40.77
2022-10-14T09:40:02.178Z,35.57
2022-10-14T09:42:45.360Z,35.73
2022-10-14T09:45:16.900Z,33.00
2022-10-14T09:47:53.184Z,34.50
2022-10-14T09:50:32.211Z,33.47
2022-10-14T09:53:06.059Z,34.57
2022-10-14T09:55:36.387Z,31.17
2022-10-14T09:58:07.607Z,26.90
2022-10-14T10:00:38.613Z,25.47
2022-10-14T10:03:07.844Z,25.80
2022-10-14T10:05:36.932Z,23.67
2022-10-14T10:08:11.042Z,24.00
2022-10-14T10:10:38.933Z,22.93
2022-10-14T10:13:22.374Z,24.50
2022-10-14T10:16:00.260Z,21.67
2022-10-14T10:18:28.903Z,20.60
2022-10-14T10:21:06.884Z,21.80
2022-10-14T10:23:37.309Z,25.07
2022-10-14T10:26:22.957Z,23.00
2022-10-14T10:28:50.926Z,21.13
2022-10-14T10:31:33.386Z,21.40
2022-10-14T10:34:10.910Z,20.73
2022-10-14T10:36:43.911Z,22.63
2022-10-14T10:39:24.600Z,21.20
2022-10-14T10:42:04.022Z,24.67
2022-10-14T10:44:49.431Z,21.40
2022-10-14T10:47:34.359Z,21.83
2022-10-14T10:50:22.492Z,20.43
2022-10-14T10:53:04.344Z,24.97
2022-10-14T10:55:39.696Z,25.07
2022-10-14T10:58:26.115Z,26.67
2022-10-14T11:01:02.100Z,25.47
2022-10-14T11:03:45.319Z,25.50
2022-10-14T11:06:43.277Z,29.80
2022-10-14T11:09:33.514Z,27.47
2022-10-14T11:12:15.411Z,27.07
2022-10-14T11:15:16.574Z,26.83
2022-10-14T11:17:50.798Z,24.57
2022-10-14T11:20:33.682Z,23.87
2022-10-14T11:23:24.266Z,20.77
2022-10-14T11:25:57.955Z,23.77
2022-10-14T11:28:36.347Z,22.33
2022-10-14T11:31:11.438Z,21.03
2022-10-14T11:33:51.910Z,20.77
2022-10-14T11:36:31.910Z,21.93
2022-10-14T11:39:26.018Z,20.93
2022-10-14T11:42:04.897Z,21.87
2022-10-14T11:44:36.522Z,21.97
2022-10-14T11:47:10.969Z,21.87
2022-10-14T11:49:45.407Z,23.57
2022-10-14T11:52:20.837Z,22.23
2022-10-14T11:54:53.745Z,21.67
2022-10-14T11:57:30.612Z,20.10
2022-10-14T12:00:36.708Z,21.40
2022-10-14T12:03:12.844Z,17.37
2022-10-14T12:05:46.471Z,21.27
2022-10-14T12:08:25.911Z,19.97
2022-10-14T12:10:59.369Z,21.43
2022-10-14T12:13:35.527Z,25.37
2022-10-14T12:16:05.400Z,27.47
2022-10-14T12:21:15.657Z,21.33
2022-10-14T12:23:49.233Z,21.08
2022-10-14T12:26:36.024Z,20.03
2022-10-14T12:29:05.062Z,22.53
2022-10-14T12:31:38.131Z,22.00
2022-10-14T12:34:30.461Z,21.77
2022-10-14T12:36:58.421Z,22.13
2022-10-14T12:39:35.574Z,21.87
2022-10-14T12:42:06.888Z,21.73
2022-10-14T12:44:42.633Z,22.37
2022-10-14T12:47:19.260Z,20.37
2022-10-14T12:49:50.415Z,20.67
2022-10-14T12:52:23.102Z,19.27
2022-10-14T12:57:31.864Z,17.77
2022-10-14T13:00:04.179Z,19.67
2022-10-14T13:02:34.990Z,18.30
2022-10-14T13:05:07.735Z,19.10
2022-10-14T13:07:44.678Z,21.40
2022-10-14T13:10:46.961Z,21.63
2022-10-14T13:14:04.234Z,19.33
2022-10-14T13:17:00.226Z,20.53
2022-10-14T13:19:46.487Z,20.53
2022-10-14T13:22:37.914Z,17.80
2022-10-14T13:25:13.179Z,18.23
2022-10-14T13:28:04.908Z,16.77
2022-10-14T13:30:38.041Z,18.63
2022-10-14T13:33:16.907Z,18.30
2022-10-14T13:35:53.895Z,17.90
2022-10-14T13:38:23.794Z,16.40
2022-10-14T13:40:55.628Z,18.30
2022-10-14T13:43:30.377Z,16.73
2022-10-14T13:46:06.884Z,13.53
2022-10-14T13:48:38.068Z,13.80
2022-10-14T13:51:36.132Z,12.40
2022-10-14T13:54:16.205Z,16.23
2022-10-14T13:56:44.472Z,11.77
2022-10-14T13:59:43.761Z,11.63
2022-10-14T14:02:15.748Z,10.13
2022-10-14T14:04:49.026Z,11.70
2022-10-14T14:07:59.676Z,12.50
2022-10-14T14:10:10.791Z,13.33
2022-10-14T14:12:42.384Z,14.33
2022-10-14T14:15:20.344Z,15.73
2022-10-14T14:17:48.331Z,15.30
2022-10-14T14:20:22.184Z,14.97
2022-10-14T14:22:51.525Z,16.73
2022-10-14T14:25:34.965Z,14.53
2022-10-14T14:28:15.044Z,12.70
2022-10-14T14:30:54.525Z,13.63
2022-10-14T14:33:28.904Z,14.33
2022-10-14T14:35:58.904Z,13.87
2022-10-14T14:38:31.274Z,15.20
2022-10-14T14:41:03.414Z,15.43
2022-10-14T14:43:36.457Z,13.90
2022-10-14T14:46:07.522Z,14.77
2022-10-14T14:48:35.908Z,13.33
2022-10-14T14:51:03.926Z,14.53
2022-10-14T14:53:32.060Z,13.33
2022-10-14T14:56:03.330Z,14.83
2022-10-14T14:58:35.628Z,13.37
2022-10-14T15:01:16.686Z,8.17
2022-10-14T15:04:12.925Z,12.90
2022-10-14T15:06:50.698Z,12.87
2022-10-14T15:09:24.616Z,13.33
2022-10-14T15:11:54.972Z,12.00
2022-10-14T15:14:34.363Z,12.43
2022-10-14T15:17:06.422Z,14.77
2022-10-14T15:19:38.384Z,15.53
2022-10-14T15:22:34.439Z,15.37
2022-10-14T15:25:07.710Z,15.33
2022-10-14T15:27:52.753Z,20.73
2022-10-14T15:30:23.929Z,15.20
2022-10-14T15:32:55.908Z,15.80
2022-10-14T15:35:24.748Z,17.90
2022-10-14T15:37:53.915Z,16.07
2022-10-14T15:40:24.288Z,17.37
2022-10-14T15:42:52.150Z,16.80
2022-10-14T15:45:20.443Z,15.33
2022-10-14T15:50:30.168Z,18.13
2022-10-14T15:52:57.984Z,18.80
2022-10-14T15:55:29.616Z,20.60
2022-10-14T15:57:59.313Z,15.57
2022-10-14T16:00:27.162Z,16.47
2022-10-14T16:02:59.406Z,16.37
2022-10-14T16:05:29.123Z,17.67
2022-10-14T16:07:57.425Z,15.40
2022-10-14T16:10:29.240Z,17.27
2022-10-14T16:13:00.342Z,15.63
2022-10-14T16:15:33.224Z,15.43
2022-10-14T16:18:02.763Z,14.17
2022-10-14T16:20:31.390Z,15.30
2022-10-14T16:23:01.200Z,15.17
2022-10-14T16:25:33.624Z,15.80
2022-10-14T16:28:01.483Z,13.67
2022-10-14T16:30:29.265Z,15.40
2022-10-14T16:32:57.104Z,14.33
2022-10-14T16:35:26.222Z,14.73
2022-10-14T16:37:54.596Z,14.93
2022-10-14T16:40:23.066Z,14.73
2022-10-14T16:42:50.879Z,13.70
2022-10-14T16:45:19.224Z,15.00
2022-10-14T16:47:47.194Z,12.70
2022-10-14T16:50:15.006Z,16.70
2022-10-14T16:53:05.868Z,14.00
2022-10-14T16:55:34.320Z,14.53
2022-10-14T16:58:02.302Z,14.77
2022-10-14T17:00:30.219Z,14.77
2022-10-14T17:02:58.048Z,13.13
2022-10-14T17:05:26.926Z,13.47
2022-10-14T17:07:56.044Z,13.40
2022-10-14T17:10:24.610Z,15.23
2022-10-14T17:12:53.830Z,14.20
2022-10-14T17:15:22.321Z,13.57
2022-10-14T17:17:50.085Z,13.33
2022-10-14T17:20:20.177Z,13.83
2022-10-14T17:22:49.720Z,15.33
2022-10-14T17:25:19.938Z,15.83
2022-10-14T17:27:47.883Z,16.13
2022-10-14T17:30:15.794Z,16.77
2022-10-14T17:32:43.718Z,17.73
2022-10-14T17:35:15.054Z,15.87
2022-10-14T17:37:43.255Z,14.97
2022-10-14T17:40:11.785Z,15.73
2022-10-14T17:42:41.732Z,16.47
2022-10-14T17:45:10.831Z,16.30
2022-10-14T17:47:38.714Z,15.13
2022-10-14T17:50:08.813Z,14.87
2022-10-14T17:52:36.754Z,16.93
2022-10-14T17:55:04.890Z,15.13
2022-10-14T17:57:32.804Z,18.23
2022-10-14T18:00:01.930Z,15.03
2022-10-14T18:02:39.660Z,17.10
2022-10-14T18:05:08.138Z,14.60
2022-10-14T18:07:37.545Z,16.27
2022-10-14T18:10:06.611Z,13.13
2022-10-14T18:12:34.397Z,17.20
2022-10-14T18:15:03.580Z,16.33
2022-10-14T18:17:31.340Z,13.17
2022-10-14T18:20:04.034Z,14.40
2022-10-14T18:22:32.487Z,14.00
2022-10-14T18:25:00.323Z,13.67
2022-10-14T18:27:28.194Z,14.03
2022-10-14T18:29:55.956Z,14.77
2022-10-14T18:32:25.452Z,12.37
2022-10-14T18:34:53.514Z,13.83
2022-10-14T18:37:21.342Z,13.67
2022-10-14T18:39:49.128Z,13.23
2022-10-14T18:42:20.063Z,13.07
2022-10-14T18:44:48.959Z,12.63
2022-10-14T18:47:16.842Z,13.80
2022-10-14T18:49:46.951Z,10.83
2022-10-14T18:52:14.769Z,11.27
2022-10-14T18:54:42.608Z,11.37
2022-10-14T18:57:14.722Z,12.40
2022-10-14T18:59:42.769Z,9.13
2022-10-14T19:02:13.487Z,11.27
2022-10-14T19:04:41.587Z,10.93
2022-10-14T19:07:10.721Z,10.17
2022-10-14T19:09:38.563Z,10.13
2022-10-14T19:12:26.859Z,10.00
2022-10-14T19:14:54.671Z,10.57
2022-10-14T19:17:22.434Z,11.50
2022-10-14T19:19:50.383Z,9.23
2022-10-14T19:22:19.940Z,9.33
2022-10-14T19:24:48.032Z,10.00
2022-10-14T19:27:16.011Z,9.07
2022-10-14T19:29:43.868Z,10.53
2022-10-14T19:32:11.690Z,10.37
2022-10-14T19:34:42.553Z,10.13
2022-10-14T19:37:12.763Z,9.27
2022-10-14T19:39:42.016Z,9.30
2022-10-14T19:42:09.831Z,9.77
2022-10-14T19:44:37.613Z,8.30
2022-10-14T19:47:05.630Z,8.43
2022-10-14T19:49:33.406Z,7.77
2022-10-14T19:52:01.222Z,7.10
2022-10-14T19:54:29.174Z,7.87
2022-10-14T19:56:58.357Z,9.00
2022-10-14T19:59:26.266Z,8.13
2022-10-14T20:01:54.158Z,8.97
2022-10-14T20:04:23.942Z,8.53
2022-10-14T20:06:54.455Z,10.27
2022-10-14T20:09:22.248Z,9.47
2022-10-14T20:11:50.073Z,8.13
2022-10-14T20:14:19.385Z,8.27
2022-10-14T20:16:49.871Z,7.77
2022-10-14T20:19:20.141Z,7.73
2022-10-14T20:21:47.937Z,9.47
2022-10-14T20:24:15.929Z,7.93
2022-10-14T20:26:43.802Z,9.80
2022-10-14T20:29:12.390Z,7.90
2022-10-14T20:31:41.497Z,9.43
2022-10-14T20:34:10.405Z,8.73
2022-10-14T20:36:39.195Z,8.27
2022-10-14T20:39:07.054Z,9.43
2022-10-14T20:41:34.899Z,8.47
2022-10-14T20:44:02.787Z,8.43
2022-10-14T20:46:30.638Z,9.07
2022-10-14T20:48:59.754Z,7.20
2022-10-14T20:51:28.062Z,7.03
2022-10-14T20:54:01.699Z,10.63
2022-10-14T20:56:33.393Z,11.47
2022-10-14T20:59:03.165Z,7.87
2022-10-14T21:01:32.476Z,8.10
2022-10-14T21:04:03.906Z,9.93
2022-10-14T21:06:32.353Z,7.63
2022-10-14T21:09:01.279Z,8.47
2022-10-14T21:11:29.375Z,7.23
2022-10-14T21:13:59.435Z,7.90
2022-10-14T21:16:29.631Z,7.97
2022-10-14T21:18:59.194Z,9.33
2022-10-14T21:21:30.203Z,9.23
2022-10-14T21:23:59.353Z,7.80
2022-10-14T21:26:27.482Z,8.30
2022-10-14T21:28:55.360Z,7.37
2022-10-14T21:31:23.714Z,8.80
2022-10-14T21:33:55.615Z,10.30
2022-10-14T21:36:23.753Z,7.73
2022-10-14T21:38:53.381Z,6.83
2022-10-14T21:41:21.226Z,9.30
2022-10-14T21:43:49.204Z,8.37
2022-10-14T21:46:17.668Z,8.07
2022-10-14T21:48:46.369Z,7.60
2022-10-14T21:51:16.579Z,7.77
2022-10-14T21:53:45.778Z,8.17
2022-10-14T21:56:16.771Z,7.77
2022-10-14T21:58:45.033Z,9.17
2022-10-14T22:01:15.941Z,8.57
2022-10-14T22:03:44.596Z,8.23
2022-10-14T22:06:14.392Z,9.80
2022-10-14T22:08:45.258Z,9.33
2022-10-14T22:11:19.060Z,8.47
2022-10-14T22:13:47.370Z,9.37
2022-10-14T22:16:16.821Z,6.90
2022-10-14T22:18:46.645Z,11.50
2022-10-14T22:21:16.521Z,8.67
2022-10-14T22:23:44.660Z,7.03
2022-10-14T22:26:14.723Z,8.60
2022-10-14T22:28:44.542Z,7.40
2022-10-14T22:31:14.348Z,9.37
2022-10-14T22:33:42.624Z,9.17
2022-10-14T22:36:12.214Z,8.47
2022-10-14T22:38:41.426Z,8.67
2022-10-14T22:41:10.665Z,8.70
2022-10-14T22:43:40.338Z,9.10
2022-10-14T22:46:12.641Z,8.73
2022-10-14T22:48:40.697Z,6.50
2022-10-14T22:51:10.234Z,6.73
2022-10-14T22:53:39.538Z,8.30
2022-10-14T22:56:09.003Z,7.87
2022-10-14T22:58:37.365Z,7.03
2022-10-14T23:01:11.118Z,10.07
2022-10-14T23:03:39.462Z,9.60
2022-10-14T23:06:09.003Z,11.03
2022-10-14T23:08:36.883Z,9.43
2022-10-14T23:11:05.473Z,8.50
2022-10-14T23:13:33.943Z,9.17
2022-10-14T23:16:04.463Z,8.37
2022-10-14T23:18:36.626Z,8.93
2022-10-14T23:21:11.881Z,9.03
2022-10-14T23:23:40.644Z,10.70
2022-10-14T23:26:09.978Z,10.50
2022-10-14T23:28:38.079Z,7.60
2022-10-14T23:31:10.571Z,8.43
2022-10-14T23:33:40.360Z,9.23
2022-10-14T23:36:10.462Z,11.83
2022-10-14T23:38:39.252Z,11.07
2022-10-14T23:41:08.442Z,10.63
2022-10-14T23:43:36.641Z,11.37
2022-10-14T23:46:05.247Z,13.80
2022-10-14T23:48:33.552Z,10.97
2022-10-14T23:51:02.907Z,10.93
2022-10-14T23:53:30.727Z,13.27
2022-10-14T23:55:58.648Z,10.00
2022-10-14T23:58:28.411Z,13.30
